sensor_id;sensor_type;location;lat;lon;timestamp;P1;durP1;ratioP1;P2;durP2;ratioP2
48205;SDS011;33995;48.202;16.260;2023-07-30T00:01:56;2.43;;;2.23;;
48205;SDS011;33995;48.202;16.260;2023-07-30T00:04:26;2.50;;;2.30;;
48205;SDS011;33995;48.202;16.260;2023-07-30T00:07:05;2.50;;;2.30;;
48205;SDS011;33995;48.202;16.260;2023-07-30T00:09:34;2.70;;;2.50;;
48205;SDS011;33995;48.202;16.260;2023-07-30T00:12:09;2.60;;;2.40;;
48205;SDS011;33995;48.202;16.260;2023-07-30T00:14:40;2.50;;;2.30;;
48205;SDS011;33995;48.202;16.260;2023-07-30T00:17:14;2.90;;;2.60;;
48205;SDS011;33995;48.202;16.260;2023-07-30T00:19:46;3.30;;;2.30;;
48205;SDS011;33995;48.202;16.260;2023-07-30T00:22:20;2.60;;;2.40;;
48205;SDS011;33995;48.202;16.260;2023-07-30T00:24:54;2.60;;;2.40;;
48205;SDS011;33995;48.202;16.260;2023-07-30T00:27:27;2.57;;;2.37;;
48205;SDS011;33995;48.202;16.260;2023-07-30T00:30:02;2.80;;;2.60;;
48205;SDS011;33995;48.202;16.260;2023-07-30T00:32:37;2.70;;;2.50;;
48205;SDS011;33995;48.202;16.260;2023-07-30T00:35:11;2.80;;;2.60;;
48205;SDS011;33995;48.202;16.260;2023-07-30T00:37:40;2.97;;;2.40;;
48205;SDS011;33995;48.202;16.260;2023-07-30T00:40:12;2.37;;;2.17;;
48205;SDS011;33995;48.202;16.260;2023-07-30T00:42:47;2.60;;;2.40;;
48205;SDS011;33995;48.202;16.260;2023-07-30T00:45:19;2.40;;;2.20;;
48205;SDS011;33995;48.202;16.260;2023-07-30T00:47:50;2.40;;;2.20;;
48205;SDS011;33995;48.202;16.260;2023-07-30T00:50:30;2.83;;;2.57;;
48205;SDS011;33995;48.202;16.260;2023-07-30T00:53:09;2.83;;;2.50;;
48205;SDS011;33995;48.202;16.260;2023-07-30T00:55:41;2.50;;;2.30;;
48205;SDS011;33995;48.202;16.260;2023-07-30T00:58:15;2.33;;;2.20;;
48205;SDS011;33995;48.202;16.260;2023-07-30T01:00:51;2.50;;;2.30;;
48205;SDS011;33995;48.202;16.260;2023-07-30T01:03:25;2.43;;;2.23;;
48205;SDS011;33995;48.202;16.260;2023-07-30T01:05:53;2.77;;;2.50;;
48205;SDS011;33995;48.202;16.260;2023-07-30T01:08:31;2.60;;;2.40;;
48205;SDS011;33995;48.202;16.260;2023-07-30T01:11:02;2.63;;;2.40;;
48205;SDS011;33995;48.202;16.260;2023-07-30T01:13:35;2.70;;;2.50;;
48205;SDS011;33995;48.202;16.260;2023-07-30T01:16:06;2.50;;;2.30;;
48205;SDS011;33995;48.202;16.260;2023-07-30T01:18:36;2.47;;;2.20;;
48205;SDS011;33995;48.202;16.260;2023-07-30T01:21:10;2.67;;;2.43;;
48205;SDS011;33995;48.202;16.260;2023-07-30T01:23:41;2.90;;;2.33;;
48205;SDS011;33995;48.202;16.260;2023-07-30T01:26:12;2.50;;;2.30;;
48205;SDS011;33995;48.202;16.260;2023-07-30T01:29:06;2.37;;;2.17;;
48205;SDS011;33995;48.202;16.260;2023-07-30T01:31:43;2.67;;;2.47;;
48205;SDS011;33995;48.202;16.260;2023-07-30T01:34:16;2.40;;;2.20;;
48205;SDS011;33995;48.202;16.260;2023-07-30T01:36:54;2.83;;;2.30;;
48205;SDS011;33995;48.202;16.260;2023-07-30T01:39:37;2.50;;;2.30;;
48205;SDS011;33995;48.202;16.260;2023-07-30T01:42:13;2.70;;;2.30;;
48205;SDS011;33995;48.202;16.260;2023-07-30T01:44:42;2.23;;;2.03;;
48205;SDS011;33995;48.202;16.260;2023-07-30T01:47:16;2.47;;;2.27;;
48205;SDS011;33995;48.202;16.260;2023-07-30T01:49:52;2.50;;;2.30;;
48205;SDS011;33995;48.202;16.260;2023-07-30T01:52:36;2.63;;;2.30;;
48205;SDS011;33995;48.202;16.260;2023-07-30T01:55:12;2.60;;;2.40;;
48205;SDS011;33995;48.202;16.260;2023-07-30T01:57:56;2.63;;;2.43;;
48205;SDS011;33995;48.202;16.260;2023-07-30T02:00:24;2.40;;;2.20;;
48205;SDS011;33995;48.202;16.260;2023-07-30T02:03:02;2.70;;;2.50;;
48205;SDS011;33995;48.202;16.260;2023-07-30T02:05:35;3.27;;;2.40;;
48205;SDS011;33995;48.202;16.260;2023-07-30T02:08:02;2.50;;;2.30;;
48205;SDS011;33995;48.202;16.260;2023-07-30T02:10:35;2.40;;;2.20;;
48205;SDS011;33995;48.202;16.260;2023-07-30T02:13:05;2.20;;;2.10;;
48205;SDS011;33995;48.202;16.260;2023-07-30T02:15:43;2.50;;;2.30;;
48205;SDS011;33995;48.202;16.260;2023-07-30T02:18:26;2.63;;;2.20;;
48205;SDS011;33995;48.202;16.260;2023-07-30T02:20:58;2.57;;;2.37;;
48205;SDS011;33995;48.202;16.260;2023-07-30T02:23:35;3.27;;;2.40;;
48205;SDS011;33995;48.202;16.260;2023-07-30T02:26:03;2.50;;;2.30;;
48205;SDS011;33995;48.202;16.260;2023-07-30T02:28:34;2.53;;;2.33;;
48205;SDS011;33995;48.202;16.260;2023-07-30T02:31:05;2.30;;;2.10;;
48205;SDS011;33995;48.202;16.260;2023-07-30T02:33:37;2.50;;;2.30;;
48205;SDS011;33995;48.202;16.260;2023-07-30T02:36:10;2.97;;;2.40;;
48205;SDS011;33995;48.202;16.260;2023-07-30T02:38:40;2.60;;;2.40;;
48205;SDS011;33995;48.202;16.260;2023-07-30T02:41:14;2.77;;;2.57;;
48205;SDS011;33995;48.202;16.260;2023-07-30T02:43:48;2.40;;;2.20;;
48205;SDS011;33995;48.202;16.260;2023-07-30T02:46:17;2.33;;;2.13;;
48205;SDS011;33995;48.202;16.260;2023-07-30T02:48:48;2.27;;;2.07;;
48205;SDS011;33995;48.202;16.260;2023-07-30T02:51:26;4.43;;;2.33;;
48205;SDS011;33995;48.202;16.260;2023-07-30T02:53:58;2.63;;;2.43;;
48205;SDS011;33995;48.202;16.260;2023-07-30T02:56:34;2.37;;;2.07;;
48205;SDS011;33995;48.202;16.260;2023-07-30T02:59:04;2.37;;;2.17;;
48205;SDS011;33995;48.202;16.260;2023-07-30T03:01:34;2.57;;;2.20;;
48205;SDS011;33995;48.202;16.260;2023-07-30T03:04:06;2.80;;;2.30;;
48205;SDS011;33995;48.202;16.260;2023-07-30T03:06:38;2.50;;;2.30;;
48205;SDS011;33995;48.202;16.260;2023-07-30T03:09:13;3.17;;;2.40;;
48205;SDS011;33995;48.202;16.260;2023-07-30T03:11:53;2.60;;;2.40;;
48205;SDS011;33995;48.202;16.260;2023-07-30T03:14:24;2.97;;;2.47;;
48205;SDS011;33995;48.202;16.260;2023-07-30T03:16:57;2.50;;;2.30;;
48205;SDS011;33995;48.202;16.260;2023-07-30T03:19:29;2.50;;;2.30;;
48205;SDS011;33995;48.202;16.260;2023-07-30T03:22:03;2.63;;;2.40;;
48205;SDS011;33995;48.202;16.260;2023-07-30T03:24:39;2.40;;;2.20;;
48205;SDS011;33995;48.202;16.260;2023-07-30T03:27:09;2.23;;;1.93;;
48205;SDS011;33995;48.202;16.260;2023-07-30T03:29:41;2.37;;;2.17;;
48205;SDS011;33995;48.202;16.260;2023-07-30T03:32:09;2.50;;;2.30;;
48205;SDS011;33995;48.202;16.260;2023-07-30T03:34:44;3.40;;;2.40;;
48205;SDS011;33995;48.202;16.260;2023-07-30T03:37:20;2.70;;;2.50;;
48205;SDS011;33995;48.202;16.260;2023-07-30T03:39:49;2.57;;;2.37;;
48205;SDS011;33995;48.202;16.260;2023-07-30T03:42:20;2.40;;;2.20;;
48205;SDS011;33995;48.202;16.260;2023-07-30T03:45:03;2.53;;;2.33;;
48205;SDS011;33995;48.202;16.260;2023-07-30T03:47:38;2.50;;;2.30;;
48205;SDS011;33995;48.202;16.260;2023-07-30T03:50:11;2.50;;;2.30;;
48205;SDS011;33995;48.202;16.260;2023-07-30T03:52:55;2.50;;;2.30;;
48205;SDS011;33995;48.202;16.260;2023-07-30T03:55:26;2.60;;;2.40;;
48205;SDS011;33995;48.202;16.260;2023-07-30T03:57:54;2.57;;;2.37;;
48205;SDS011;33995;48.202;16.260;2023-07-30T04:00:25;2.50;;;2.30;;
48205;SDS011;33995;48.202;16.260;2023-07-30T04:02:59;2.50;;;2.30;;
48205;SDS011;33995;48.202;16.260;2023-07-30T04:05:31;2.50;;;2.30;;
48205;SDS011;33995;48.202;16.260;2023-07-30T04:08:01;2.57;;;2.37;;
48205;SDS011;33995;48.202;16.260;2023-07-30T04:10:30;2.70;;;2.50;;
48205;SDS011;33995;48.202;16.260;2023-07-30T04:12:59;2.30;;;2.10;;
48205;SDS011;33995;48.202;16.260;2023-07-30T04:15:35;2.50;;;2.30;;
48205;SDS011;33995;48.202;16.260;2023-07-30T04:18:16;2.57;;;2.37;;
48205;SDS011;33995;48.202;16.260;2023-07-30T04:20:47;2.50;;;2.30;;
48205;SDS011;33995;48.202;16.260;2023-07-30T04:23:20;2.63;;;2.20;;
48205;SDS011;33995;48.202;16.260;2023-07-30T04:25:55;2.40;;;2.20;;
48205;SDS011;33995;48.202;16.260;2023-07-30T04:28:39;2.53;;;2.33;;
48205;SDS011;33995;48.202;16.260;2023-07-30T04:31:20;3.50;;;2.60;;
48205;SDS011;33995;48.202;16.260;2023-07-30T04:33:54;2.63;;;2.43;;
48205;SDS011;33995;48.202;16.260;2023-07-30T04:36:27;2.63;;;2.43;;
48205;SDS011;33995;48.202;16.260;2023-07-30T04:39:02;2.50;;;2.30;;
48205;SDS011;33995;48.202;16.260;2023-07-30T04:41:35;2.57;;;2.37;;
48205;SDS011;33995;48.202;16.260;2023-07-30T04:44:05;2.60;;;2.33;;
48205;SDS011;33995;48.202;16.260;2023-07-30T04:47:08;2.40;;;2.20;;
48205;SDS011;33995;48.202;16.260;2023-07-30T04:49:36;2.70;;;2.50;;
48205;SDS011;33995;48.202;16.260;2023-07-30T04:52:10;3.13;;;2.33;;
48205;SDS011;33995;48.202;16.260;2023-07-30T04:54:42;2.90;;;2.33;;
48205;SDS011;33995;48.202;16.260;2023-07-30T04:57:15;2.50;;;2.30;;
48205;SDS011;33995;48.202;16.260;2023-07-30T04:59:53;2.67;;;2.47;;
48205;SDS011;33995;48.202;16.260;2023-07-30T05:02:26;2.90;;;2.70;;
48205;SDS011;33995;48.202;16.260;2023-07-30T05:04:58;2.60;;;2.40;;
48205;SDS011;33995;48.202;16.260;2023-07-30T05:07:27;2.93;;;2.50;;
48205;SDS011;33995;48.202;16.260;2023-07-30T05:09:55;2.70;;;2.50;;
48205;SDS011;33995;48.202;16.260;2023-07-30T05:12:26;2.77;;;2.57;;
48205;SDS011;33995;48.202;16.260;2023-07-30T05:14:56;2.40;;;2.20;;
48205;SDS011;33995;48.202;16.260;2023-07-30T05:17:31;2.63;;;2.43;;
48205;SDS011;33995;48.202;16.260;2023-07-30T05:20:08;2.70;;;2.50;;
48205;SDS011;33995;48.202;16.260;2023-07-30T05:22:45;2.70;;;2.50;;
48205;SDS011;33995;48.202;16.260;2023-07-30T05:25:20;3.00;;;2.63;;
48205;SDS011;33995;48.202;16.260;2023-07-30T05:27:55;2.60;;;2.40;;
48205;SDS011;33995;48.202;16.260;2023-07-30T05:30:29;2.70;;;2.50;;
48205;SDS011;33995;48.202;16.260;2023-07-30T05:33:02;2.70;;;2.50;;
48205;SDS011;33995;48.202;16.260;2023-07-30T05:35:34;2.67;;;2.47;;
48205;SDS011;33995;48.202;16.260;2023-07-30T05:38:07;2.93;;;2.63;;
48205;SDS011;33995;48.202;16.260;2023-07-30T05:40:41;2.60;;;2.40;;
48205;SDS011;33995;48.202;16.260;2023-07-30T05:43:16;2.63;;;2.43;;
48205;SDS011;33995;48.202;16.260;2023-07-30T05:45:54;2.60;;;2.40;;
48205;SDS011;33995;48.202;16.260;2023-07-30T05:48:27;2.53;;;2.33;;
48205;SDS011;33995;48.202;16.260;2023-07-30T05:50:58;2.50;;;2.30;;
48205;SDS011;33995;48.202;16.260;2023-07-30T05:53:30;2.60;;;2.10;;
48205;SDS011;33995;48.202;16.260;2023-07-30T05:56:05;2.67;;;2.47;;
48205;SDS011;33995;48.202;16.260;2023-07-30T05:58:33;2.73;;;2.50;;
48205;SDS011;33995;48.202;16.260;2023-07-30T06:01:05;2.80;;;2.60;;
48205;SDS011;33995;48.202;16.260;2023-07-30T06:03:38;2.60;;;2.40;;
48205;SDS011;33995;48.202;16.260;2023-07-30T06:06:19;2.47;;;2.27;;
48205;SDS011;33995;48.202;16.260;2023-07-30T06:08:55;3.00;;;2.67;;
48205;SDS011;33995;48.202;16.260;2023-07-30T06:11:26;3.27;;;2.90;;
48205;SDS011;33995;48.202;16.260;2023-07-30T06:14:04;2.63;;;2.43;;
48205;SDS011;33995;48.202;16.260;2023-07-30T06:16:37;2.83;;;2.47;;
48205;SDS011;33995;48.202;16.260;2023-07-30T06:19:08;2.63;;;2.43;;
48205;SDS011;33995;48.202;16.260;2023-07-30T06:21:58;2.63;;;2.40;;
48205;SDS011;33995;48.202;16.260;2023-07-30T06:24:28;2.23;;;2.03;;
48205;SDS011;33995;48.202;16.260;2023-07-30T06:27:17;2.33;;;2.13;;
48205;SDS011;33995;48.202;16.260;2023-07-30T06:29:57;2.30;;;2.10;;
48205;SDS011;33995;48.202;16.260;2023-07-30T06:32:26;2.40;;;2.20;;
48205;SDS011;33995;48.202;16.260;2023-07-30T06:34:55;2.27;;;2.07;;
48205;SDS011;33995;48.202;16.260;2023-07-30T06:37:31;2.57;;;2.37;;
48205;SDS011;33995;48.202;16.260;2023-07-30T06:40:00;2.30;;;2.10;;
48205;SDS011;33995;48.202;16.260;2023-07-30T06:42:36;2.27;;;2.07;;
48205;SDS011;33995;48.202;16.260;2023-07-30T06:45:10;2.03;;;1.93;;
48205;SDS011;33995;48.202;16.260;2023-07-30T06:47:52;2.30;;;2.10;;
48205;SDS011;33995;48.202;16.260;2023-07-30T06:50:28;2.70;;;1.90;;
48205;SDS011;33995;48.202;16.260;2023-07-30T06:52:59;1.97;;;1.80;;
48205;SDS011;33995;48.202;16.260;2023-07-30T06:55:27;1.90;;;1.80;;
48205;SDS011;33995;48.202;16.260;2023-07-30T06:57:58;1.80;;;1.70;;
48205;SDS011;33995;48.202;16.260;2023-07-30T07:00:28;1.80;;;1.70;;
48205;SDS011;33995;48.202;16.260;2023-07-30T07:02:55;3.00;;;1.80;;
48205;SDS011;33995;48.202;16.260;2023-07-30T07:05:23;1.93;;;1.70;;
48205;SDS011;33995;48.202;16.260;2023-07-30T07:07:55;1.80;;;1.70;;
48205;SDS011;33995;48.202;16.260;2023-07-30T07:10:25;1.70;;;1.60;;
48205;SDS011;33995;48.202;16.260;2023-07-30T07:12:56;2.07;;;1.87;;
48205;SDS011;33995;48.202;16.260;2023-07-30T07:15:24;1.70;;;1.60;;
48205;SDS011;33995;48.202;16.260;2023-07-30T07:17:54;2.63;;;1.70;;
48205;SDS011;33995;48.202;16.260;2023-07-30T07:20:27;1.80;;;1.70;;
48205;SDS011;33995;48.202;16.260;2023-07-30T07:23:03;1.70;;;1.60;;
48205;SDS011;33995;48.202;16.260;2023-07-30T07:25:34;3.83;;;1.90;;
48205;SDS011;33995;48.202;16.260;2023-07-30T07:28:08;1.90;;;1.60;;
48205;SDS011;33995;48.202;16.260;2023-07-30T07:30:37;1.73;;;1.63;;
48205;SDS011;33995;48.202;16.260;2023-07-30T07:33:12;2.10;;;1.73;;
48205;SDS011;33995;48.202;16.260;2023-07-30T07:35:46;1.90;;;1.80;;
48205;SDS011;33995;48.202;16.260;2023-07-30T07:38:17;1.90;;;1.60;;
48205;SDS011;33995;48.202;16.260;2023-07-30T07:40:48;1.80;;;1.70;;
48205;SDS011;33995;48.202;16.260;2023-07-30T07:43:27;1.67;;;1.57;;
48205;SDS011;33995;48.202;16.260;2023-07-30T07:45:57;1.70;;;1.60;;
48205;SDS011;33995;48.202;16.260;2023-07-30T07:48:32;1.70;;;1.60;;
48205;SDS011;33995;48.202;16.260;2023-07-30T07:51:03;2.03;;;1.73;;
48205;SDS011;33995;48.202;16.260;2023-07-30T07:53:31;1.80;;;1.70;;
48205;SDS011;33995;48.202;16.260;2023-07-30T07:56:13;2.00;;;1.90;;
48205;SDS011;33995;48.202;16.260;2023-07-30T07:58:43;1.80;;;1.70;;
48205;SDS011;33995;48.202;16.260;2023-07-30T08:01:16;2.00;;;1.90;;
48205;SDS011;33995;48.202;16.260;2023-07-30T08:03:51;1.90;;;1.80;;
48205;SDS011;33995;48.202;16.260;2023-07-30T08:06:23;2.10;;;1.90;;
48205;SDS011;33995;48.202;16.260;2023-07-30T08:08:52;2.13;;;1.97;;
48205;SDS011;33995;48.202;16.260;2023-07-30T08:11:23;2.37;;;2.17;;
48205;SDS011;33995;48.202;16.260;2023-07-30T08:13:55;2.20;;;2.00;;
48205;SDS011;33995;48.202;16.260;2023-07-30T08:16:34;2.50;;;2.30;;
48205;SDS011;33995;48.202;16.260;2023-07-30T08:19:08;2.13;;;1.93;;
48205;SDS011;33995;48.202;16.260;2023-07-30T08:21:42;2.20;;;2.00;;
48205;SDS011;33995;48.202;16.260;2023-07-30T08:24:17;2.43;;;2.00;;
48205;SDS011;33995;48.202;16.260;2023-07-30T08:26:46;2.60;;;2.30;;
48205;SDS011;33995;48.202;16.260;2023-07-30T08:29:29;2.50;;;2.30;;
48205;SDS011;33995;48.202;16.260;2023-07-30T08:32:09;2.40;;;2.20;;
48205;SDS011;33995;48.202;16.260;2023-07-30T08:34:46;2.60;;;2.40;;
48205;SDS011;33995;48.202;16.260;2023-07-30T08:37:26;2.50;;;2.30;;
48205;SDS011;33995;48.202;16.260;2023-07-30T08:39:57;2.60;;;2.40;;
48205;SDS011;33995;48.202;16.260;2023-07-30T08:42:25;2.60;;;2.40;;
48205;SDS011;33995;48.202;16.260;2023-07-30T08:44:56;2.60;;;2.40;;
48205;SDS011;33995;48.202;16.260;2023-07-30T08:47:27;2.47;;;2.27;;
48205;SDS011;33995;48.202;16.260;2023-07-30T08:49:58;2.30;;;2.10;;
48205;SDS011;33995;48.202;16.260;2023-07-30T08:52:28;2.73;;;2.53;;
48205;SDS011;33995;48.202;16.260;2023-07-30T08:54:57;2.57;;;2.37;;
48205;SDS011;33995;48.202;16.260;2023-07-30T08:57:38;2.43;;;2.23;;
48205;SDS011;33995;48.202;16.260;2023-07-30T09:00:30;2.73;;;1.70;;
48205;SDS011;33995;48.202;16.260;2023-07-30T09:03:02;2.43;;;1.80;;
48205;SDS011;33995;48.202;16.260;2023-07-30T09:05:31;2.60;;;1.80;;
48205;SDS011;33995;48.202;16.260;2023-07-30T09:08:01;1.90;;;1.80;;
48205;SDS011;33995;48.202;16.260;2023-07-30T09:10:31;1.90;;;1.80;;
48205;SDS011;33995;48.202;16.260;2023-07-30T09:13:21;2.20;;;2.00;;
48205;SDS011;33995;48.202;16.260;2023-07-30T09:15:54;2.30;;;1.97;;
48205;SDS011;33995;48.202;16.260;2023-07-30T09:18:24;2.03;;;1.80;;
48205;SDS011;33995;48.202;16.260;2023-07-30T09:21:01;3.53;;;1.90;;
48205;SDS011;33995;48.202;16.260;2023-07-30T09:23:32;2.20;;;2.00;;
48205;SDS011;33995;48.202;16.260;2023-07-30T09:26:18;1.93;;;1.83;;
48205;SDS011;33995;48.202;16.260;2023-07-30T09:28:55;1.87;;;1.77;;
48205;SDS011;33995;48.202;16.260;2023-07-30T09:31:27;2.07;;;1.73;;
48205;SDS011;33995;48.202;16.260;2023-07-30T09:33:58;2.70;;;2.30;;
48205;SDS011;33995;48.202;16.260;2023-07-30T09:36:36;2.57;;;2.30;;
48205;SDS011;33995;48.202;16.260;2023-07-30T09:39:14;2.90;;;2.60;;
48205;SDS011;33995;48.202;16.260;2023-07-30T09:42:07;2.00;;;1.90;;
48205;SDS011;33995;48.202;16.260;2023-07-30T09:44:48;2.00;;;1.90;;
48205;SDS011;33995;48.202;16.260;2023-07-30T09:47:17;2.23;;;1.90;;
48205;SDS011;33995;48.202;16.260;2023-07-30T09:49:50;1.80;;;1.70;;
48205;SDS011;33995;48.202;16.260;2023-07-30T09:52:22;1.87;;;1.77;;
48205;SDS011;33995;48.202;16.260;2023-07-30T09:54:55;2.00;;;1.90;;
48205;SDS011;33995;48.202;16.260;2023-07-30T09:57:26;1.97;;;1.87;;
48205;SDS011;33995;48.202;16.260;2023-07-30T10:00:01;1.83;;;1.73;;
48205;SDS011;33995;48.202;16.260;2023-07-30T10:02:39;1.80;;;1.70;;
48205;SDS011;33995;48.202;16.260;2023-07-30T10:05:14;1.90;;;1.80;;
48205;SDS011;33995;48.202;16.260;2023-07-30T10:08:08;1.87;;;1.77;;
48205;SDS011;33995;48.202;16.260;2023-07-30T10:10:41;2.27;;;1.80;;
48205;SDS011;33995;48.202;16.260;2023-07-30T10:13:13;1.90;;;1.80;;
48205;SDS011;33995;48.202;16.260;2023-07-30T10:15:46;2.20;;;2.00;;
48205;SDS011;33995;48.202;16.260;2023-07-30T10:18:16;1.70;;;1.60;;
48205;SDS011;33995;48.202;16.260;2023-07-30T10:20:55;2.03;;;1.80;;
48205;SDS011;33995;48.202;16.260;2023-07-30T10:23:32;2.00;;;1.90;;
48205;SDS011;33995;48.202;16.260;2023-07-30T10:26:13;3.47;;;1.90;;
48205;SDS011;33995;48.202;16.260;2023-07-30T10:28:40;1.90;;;1.80;;
48205;SDS011;33995;48.202;16.260;2023-07-30T10:31:14;2.20;;;1.80;;
48205;SDS011;33995;48.202;16.260;2023-07-30T10:33:53;2.30;;;2.10;;
48205;SDS011;33995;48.202;16.260;2023-07-30T10:39:29;2.23;;;1.73;;
48205;SDS011;33995;48.202;16.260;2023-07-30T10:42:03;1.80;;;1.70;;
48205;SDS011;33995;48.202;16.260;2023-07-30T10:44:46;2.53;;;2.10;;
48205;SDS011;33995;48.202;16.260;2023-07-30T10:47:17;2.40;;;2.07;;
48205;SDS011;33995;48.202;16.260;2023-07-30T10:50:03;2.13;;;2.03;;
48205;SDS011;33995;48.202;16.260;2023-07-30T10:52:36;2.50;;;2.30;;
48205;SDS011;33995;48.202;16.260;2023-07-30T10:55:08;2.70;;;2.50;;
48205;SDS011;33995;48.202;16.260;2023-07-30T10:57:39;4.80;;;4.40;;
48205;SDS011;33995;48.202;16.260;2023-07-30T11:00:23;5.03;;;4.63;;
48205;SDS011;33995;48.202;16.260;2023-07-30T11:02:55;3.60;;;3.30;;
48205;SDS011;33995;48.202;16.260;2023-07-30T11:05:28;3.27;;;2.97;;
48205;SDS011;33995;48.202;16.260;2023-07-30T11:07:57;3.67;;;3.37;;
48205;SDS011;33995;48.202;16.260;2023-07-30T11:10:31;2.70;;;2.50;;
48205;SDS011;33995;48.202;16.260;2023-07-30T11:13:03;5.00;;;2.90;;
48205;SDS011;33995;48.202;16.260;2023-07-30T11:15:41;2.40;;;2.20;;
48205;SDS011;33995;48.202;16.260;2023-07-30T11:18:12;2.77;;;2.33;;
48205;SDS011;33995;48.202;16.260;2023-07-30T11:20:42;2.50;;;2.30;;
48205;SDS011;33995;48.202;16.260;2023-07-30T11:23:22;2.40;;;2.20;;
48205;SDS011;33995;48.202;16.260;2023-07-30T11:26:01;2.43;;;2.23;;
48205;SDS011;33995;48.202;16.260;2023-07-30T11:31:14;2.10;;;1.93;;
48205;SDS011;33995;48.202;16.260;2023-07-30T11:33:55;2.07;;;1.90;;
48205;SDS011;33995;48.202;16.260;2023-07-30T11:36:30;2.10;;;1.90;;
48205;SDS011;33995;48.202;16.260;2023-07-30T11:39:09;2.10;;;1.90;;
48205;SDS011;33995;48.202;16.260;2023-07-30T11:41:39;1.80;;;1.70;;
48205;SDS011;33995;48.202;16.260;2023-07-30T11:44:09;2.00;;;1.90;;
48205;SDS011;33995;48.202;16.260;2023-07-30T11:47:13;1.80;;;1.70;;
48205;SDS011;33995;48.202;16.260;2023-07-30T11:49:57;2.70;;;2.00;;
48205;SDS011;33995;48.202;16.260;2023-07-30T11:52:36;2.57;;;2.20;;
48205;SDS011;33995;48.202;16.260;2023-07-30T11:55:27;1.90;;;1.80;;
48205;SDS011;33995;48.202;16.260;2023-07-30T11:58:10;1.90;;;1.80;;
48205;SDS011;33995;48.202;16.260;2023-07-30T12:00:40;1.90;;;1.80;;
48205;SDS011;33995;48.202;16.260;2023-07-30T12:03:13;1.80;;;1.70;;
48205;SDS011;33995;48.202;16.260;2023-07-30T12:05:54;1.60;;;1.50;;
48205;SDS011;33995;48.202;16.260;2023-07-30T12:08:25;1.83;;;1.60;;
48205;SDS011;33995;48.202;16.260;2023-07-30T12:11:01;1.40;;;1.30;;
48205;SDS011;33995;48.202;16.260;2023-07-30T12:13:44;1.43;;;1.33;;
48205;SDS011;33995;48.202;16.260;2023-07-30T12:16:44;1.20;;;1.10;;
48205;SDS011;33995;48.202;16.260;2023-07-30T12:19:13;1.37;;;1.27;;
48205;SDS011;33995;48.202;16.260;2023-07-30T12:21:43;1.33;;;1.20;;
48205;SDS011;33995;48.202;16.260;2023-07-30T12:24:16;1.47;;;1.30;;
48205;SDS011;33995;48.202;16.260;2023-07-30T12:26:50;1.30;;;1.20;;
48205;SDS011;33995;48.202;16.260;2023-07-30T12:29:22;1.47;;;1.37;;
48205;SDS011;33995;48.202;16.260;2023-07-30T12:31:51;1.00;;;1.00;;
48205;SDS011;33995;48.202;16.260;2023-07-30T12:34:26;1.20;;;1.10;;
48205;SDS011;33995;48.202;16.260;2023-07-30T12:36:59;1.40;;;1.27;;
48205;SDS011;33995;48.202;16.260;2023-07-30T12:39:29;1.30;;;1.20;;
48205;SDS011;33995;48.202;16.260;2023-07-30T12:42:05;1.40;;;1.30;;
48205;SDS011;33995;48.202;16.260;2023-07-30T12:44:32;1.50;;;1.40;;
48205;SDS011;33995;48.202;16.260;2023-07-30T12:47:00;1.50;;;1.40;;
48205;SDS011;33995;48.202;16.260;2023-07-30T12:49:31;1.40;;;1.30;;
48205;SDS011;33995;48.202;16.260;2023-07-30T12:52:02;1.40;;;1.30;;
48205;SDS011;33995;48.202;16.260;2023-07-30T12:54:34;1.50;;;1.40;;
48205;SDS011;33995;48.202;16.260;2023-07-30T12:57:06;1.50;;;1.40;;
48205;SDS011;33995;48.202;16.260;2023-07-30T12:59:37;1.30;;;1.20;;
48205;SDS011;33995;48.202;16.260;2023-07-30T13:02:09;1.40;;;1.30;;
48205;SDS011;33995;48.202;16.260;2023-07-30T13:04:42;3.03;;;1.30;;
48205;SDS011;33995;48.202;16.260;2023-07-30T13:07:14;1.30;;;1.20;;
48205;SDS011;33995;48.202;16.260;2023-07-30T13:09:45;1.10;;;1.03;;
48205;SDS011;33995;48.202;16.260;2023-07-30T13:12:23;1.10;;;1.07;;
48205;SDS011;33995;48.202;16.260;2023-07-30T13:14:58;1.30;;;1.20;;
48205;SDS011;33995;48.202;16.260;2023-07-30T13:17:36;1.10;;;1.10;;
48205;SDS011;33995;48.202;16.260;2023-07-30T13:20:12;1.40;;;1.30;;
48205;SDS011;33995;48.202;16.260;2023-07-30T13:22:54;1.23;;;1.20;;
48205;SDS011;33995;48.202;16.260;2023-07-30T13:25:37;1.30;;;1.13;;
48205;SDS011;33995;48.202;16.260;2023-07-30T13:28:10;1.40;;;1.20;;
48205;SDS011;33995;48.202;16.260;2023-07-30T13:30:44;3.00;;;1.23;;
48205;SDS011;33995;48.202;16.260;2023-07-30T13:33:31;1.30;;;1.20;;
48205;SDS011;33995;48.202;16.260;2023-07-30T13:36:02;1.40;;;1.30;;
48205;SDS011;33995;48.202;16.260;2023-07-30T13:38:40;1.30;;;1.20;;
48205;SDS011;33995;48.202;16.260;2023-07-30T13:41:16;1.40;;;1.30;;
48205;SDS011;33995;48.202;16.260;2023-07-30T13:43:52;1.23;;;1.13;;
48205;SDS011;33995;48.202;16.260;2023-07-30T13:46:29;1.20;;;1.20;;
48205;SDS011;33995;48.202;16.260;2023-07-30T13:49:08;1.50;;;1.40;;
48205;SDS011;33995;48.202;16.260;2023-07-30T13:51:37;1.30;;;1.20;;
48205;SDS011;33995;48.202;16.260;2023-07-30T13:54:09;1.10;;;1.00;;
48205;SDS011;33995;48.202;16.260;2023-07-30T13:56:48;1.47;;;1.37;;
48205;SDS011;33995;48.202;16.260;2023-07-30T13:59:21;1.23;;;1.17;;
48205;SDS011;33995;48.202;16.260;2023-07-30T14:01:58;1.83;;;1.40;;
48205;SDS011;33995;48.202;16.260;2023-07-30T14:04:38;1.20;;;1.10;;
48205;SDS011;33995;48.202;16.260;2023-07-30T14:07:06;1.33;;;1.23;;
48205;SDS011;33995;48.202;16.260;2023-07-30T14:09:38;1.20;;;1.20;;
48205;SDS011;33995;48.202;16.260;2023-07-30T14:12:08;1.30;;;1.20;;
48205;SDS011;33995;48.202;16.260;2023-07-30T14:14:42;1.57;;;1.27;;
48205;SDS011;33995;48.202;16.260;2023-07-30T14:17:14;1.90;;;1.30;;
48205;SDS011;33995;48.202;16.260;2023-07-30T14:19:46;1.50;;;1.40;;
48205;SDS011;33995;48.202;16.260;2023-07-30T14:22:29;1.70;;;1.60;;
48205;SDS011;33995;48.202;16.260;2023-07-30T14:24:59;1.80;;;1.70;;
48205;SDS011;33995;48.202;16.260;2023-07-30T14:27:34;2.23;;;2.00;;
48205;SDS011;33995;48.202;16.260;2023-07-30T14:30:07;1.73;;;1.63;;
48205;SDS011;33995;48.202;16.260;2023-07-30T14:32:40;1.90;;;1.70;;
48205;SDS011;33995;48.202;16.260;2023-07-30T14:35:13;2.07;;;1.60;;
48205;SDS011;33995;48.202;16.260;2023-07-30T14:37:42;1.93;;;1.77;;
48205;SDS011;33995;48.202;16.260;2023-07-30T14:40:17;1.93;;;1.77;;
48205;SDS011;33995;48.202;16.260;2023-07-30T14:42:45;2.77;;;1.90;;
48205;SDS011;33995;48.202;16.260;2023-07-30T14:45:19;2.90;;;2.03;;
48205;SDS011;33995;48.202;16.260;2023-07-30T14:47:52;3.27;;;2.10;;
48205;SDS011;33995;48.202;16.260;2023-07-30T14:50:27;3.97;;;2.30;;
48205;SDS011;33995;48.202;16.260;2023-07-30T14:53:01;4.17;;;2.30;;
48205;SDS011;33995;48.202;16.260;2023-07-30T14:55:31;5.33;;;2.70;;
48205;SDS011;33995;48.202;16.260;2023-07-30T14:58:07;3.20;;;2.23;;
48205;SDS011;33995;48.202;16.260;2023-07-30T15:00:40;2.50;;;2.30;;
48205;SDS011;33995;48.202;16.260;2023-07-30T15:03:12;2.60;;;2.10;;
48205;SDS011;33995;48.202;16.260;2023-07-30T15:05:46;3.07;;;2.03;;
48205;SDS011;33995;48.202;16.260;2023-07-30T15:08:31;2.77;;;2.03;;
48205;SDS011;33995;48.202;16.260;2023-07-30T15:11:19;3.20;;;2.27;;
48205;SDS011;33995;48.202;16.260;2023-07-30T15:13:51;3.27;;;2.40;;
48205;SDS011;33995;48.202;16.260;2023-07-30T15:16:26;4.30;;;2.40;;
48205;SDS011;33995;48.202;16.260;2023-07-30T15:19:03;3.30;;;2.10;;
48205;SDS011;33995;48.202;16.260;2023-07-30T15:21:41;4.77;;;2.80;;